Time;durP1;ratioP1;P1;durP2;ratioP2;P2;SDS_P1;SDS_P2;PMS_P1;PMS_P2;Temp;Humidity;BMP_temperature;BMP_pressure;BME280_temperature;BME280_humidity;BME280_pressure;Samples;Min_cycle;Max_cycle;Signal;HPM_P1;HPM_P2
2021/01/03 00:02:07;;;;;;;28.45;14.85;;;2.00;95.90;;;;;;5124927;27;27459;-50
2021/01/03 00:04:52;;;;;;;23.67;13.82;;;2.00;95.90;;;;;;5124757;27;27430;-50
2021/01/03 00:07:36;;;;;;;21.65;13.93;;;2.00;95.90;;;;;;5125087;27;27456;-51
2021/01/03 00:10:20;;;;;;;23.77;14.25;;;2.00;95.90;;;;;;5125062;27;27445;-49
2021/01/03 00:13:05;;;;;;;27.45;15.02;;;2.00;95.90;;;;;;5124118;27;27438;-52
2021/01/03 00:15:49;;;;;;;25.23;14.00;;;2.00;95.90;;;;;;5124607;27;27531;-51
2021/01/03 00:18:34;;;;;;;22.13;13.93;;;2.00;95.90;;;;;;5124995;27;27422;-53
2021/01/03 00:21:18;;;;;;;22.83;14.35;;;2.00;95.90;;;;;;5124898;27;27453;-50
2021/01/03 00:24:03;;;;;;;23.30;13.38;;;2.00;95.90;;;;;;5124491;27;27434;-53
2021/01/03 00:26:48;;;;;;;23.95;13.43;;;2.00;95.90;;;;;;5124822;27;27415;-49
2021/01/03 00:29:32;;;;;;;24.30;12.98;;;2.00;95.80;;;;;;5124852;27;27500;-51
2021/01/03 00:32:17;;;;;;;21.73;12.85;;;2.00;95.90;;;;;;5124775;27;27424;-52
2021/01/03 00:35:04;;;;;;;21.10;12.35;;;2.00;95.90;;;;;;5124340;27;27976;-50
2021/01/03 00:37:49;;;;;;;24.45;12.82;;;2.00;95.90;;;;;;5124062;27;27432;-50
2021/01/03 00:40:33;;;;;;;19.58;12.50;;;2.00;95.90;;;;;;5124138;27;27428;-53
2021/01/03 00:43:18;;;;;;;21.27;12.70;;;2.00;96.00;;;;;;5124330;27;27477;-52
2021/01/03 00:46:03;;;;;;;21.05;12.18;;;2.00;95.90;;;;;;5124288;27;28073;-51
2021/01/03 00:48:47;;;;;;;20.58;12.20;;;2.00;95.90;;;;;;5124511;27;27436;-49
2021/01/03 00:51:32;;;;;;;20.45;11.63;;;2.00;96.00;;;;;;5124630;27;27355;-52
2021/01/03 00:54:16;;;;;;;20.23;12.27;;;1.90;96.00;;;;;;5120481;27;27319;-51
2021/01/03 00:57:00;;;;;;;21.77;12.57;;;2.00;96.00;;;;;;5123945;27;27391;-53
2021/01/03 00:59:56;;;;;;;19.30;12.10;;;1.90;96.00;;;;;;5125563;27;27443;-49
2021/01/03 01:02:41;;;;;;;18.20;10.93;;;1.90;96.00;;;;;;5127691;27;27327;-52
2021/01/03 01:05:26;;;;;;;17.27;11.27;;;1.90;96.10;;;;;;5127598;27;27335;-53
2021/01/03 01:08:11;;;;;;;17.73;10.55;;;1.90;95.90;;;;;;5127294;27;27894;-49
2021/01/03 01:10:55;;;;;;;17.58;11.13;;;1.90;96.00;;;;;;5127608;27;27421;-49
2021/01/03 01:13:40;;;;;;;17.35;11.38;;;1.90;96.00;;;;;;5127477;27;27374;-50
2021/01/03 01:16:24;;;;;;;17.55;10.85;;;1.90;96.00;;;;;;5123922;27;27318;-50
2021/01/03 01:19:09;;;;;;;18.08;11.23;;;1.90;96.00;;;;;;5127264;27;27322;-51
2021/01/03 01:21:53;;;;;;;18.02;11.05;;;1.90;96.00;;;;;;5127516;27;27389;-50
2021/01/03 01:24:38;;;;;;;15.80;10.02;;;1.90;96.00;;;;;;5127567;27;27327;-49
2021/01/03 01:27:22;;;;;;;18.23;10.45;;;1.90;96.00;;;;;;5127170;27;27347;-50
2021/01/03 01:30:08;;;;;;;16.65;9.77;;;1.90;96.00;;;;;;5127125;27;27466;-51
2021/01/03 01:32:52;;;;;;;18.27;10.80;;;1.90;96.10;;;;;;5126609;27;27485;-50
2021/01/03 01:35:37;;;;;;;16.95;10.32;;;1.90;96.10;;;;;;5126621;27;27614;-51
2021/01/03 01:38:22;;;;;;;17.10;10.27;;;1.90;96.10;;;;;;5127003;27;27590;-50
2021/01/03 01:41:06;;;;;;;18.67;10.20;;;1.90;96.10;;;;;;5126935;27;27458;-50
2021/01/03 01:43:51;;;;;;;15.65;10.50;;;1.90;96.10;;;;;;5127176;27;27441;-50
2021/01/03 01:46:38;;;;;;;16.23;9.93;;;1.90;96.10;;;;;;5126915;27;27418;-51
2021/01/03 01:49:22;;;;;;;16.20;10.95;;;1.90;96.10;;;;;;5123816;27;27379;-52
2021/01/03 01:52:09;;;;;;;17.05;9.73;;;1.90;96.10;;;;;;5126336;27;27408;-51
2021/01/03 01:54:56;;;;;;;14.40;9.57;;;1.90;96.10;;;;;;5126735;27;27328;-50
2021/01/03 01:57:52;;;;;;;15.88;10.10;;;1.80;96.10;;;;;;5126073;27;27331;-50
2021/01/03 02:00:36;;;;;;;16.02;10.32;;;1.80;96.20;;;;;;5126277;27;27381;-50
2021/01/03 02:03:43;;;;;;;14.85;10.57;;;1.90;96.20;;;;;;5111204;27;27390;-50
2021/01/03 02:06:31;;;;;;;15.73;10.07;;;1.90;96.20;;;;;;5125801;27;27504;-51
2021/01/03 02:09:25;;;;;;;15.80;9.70;;;1.90;96.20;;;;;;5126561;27;27430;-51
2021/01/03 02:12:20;;;;;;;16.95;9.75;;;1.80;96.20;;;;;;5126363;27;27480;-54
2021/01/03 02:15:11;;;;;;;13.88;8.80;;;1.80;96.10;;;;;;5126356;27;27391;-51
2021/01/03 02:17:56;;;;;;;17.50;8.80;;;1.80;96.20;;;;;;5126034;27;27320;-53
2021/01/03 02:20:52;;;;;;;15.23;9.90;;;1.80;96.20;;;;;;5111192;27;27364;-47
2021/01/03 02:23:44;;;;;;;17.30;9.82;;;1.80;96.10;;;;;;5126344;27;27431;-51
2021/01/03 02:26:33;;;;;;;15.45;9.85;;;1.80;96.20;;;;;;5126476;27;27319;-50
2021/01/03 02:29:19;;;;;;;13.05;9.00;;;1.80;96.20;;;;;;5125962;27;27439;-51
2021/01/03 02:32:04;;;;;;;15.25;9.65;;;1.80;96.20;;;;;;5125468;27;27495;-51
2021/01/03 02:34:48;;;;;;;17.10;9.88;;;1.80;96.20;;;;;;5110959;27;27414;-49
2021/01/03 02:37:43;;;;;;;14.20;9.48;;;1.80;96.20;;;;;;5110890;27;27552;-50
2021/01/03 02:40:28;;;;;;;16.13;9.95;;;1.80;96.10;;;;;;5125468;27;27493;-47
2021/01/03 02:43:12;;;;;;;17.73;10.30;;;1.80;96.20;;;;;;5126040;27;27499;-50
2021/01/03 02:45:57;;;;;;;15.13;8.95;;;1.80;96.10;;;;;;5126002;27;27330;-51
2021/01/03 02:48:41;;;;;;;15.38;8.88;;;1.80;96.10;;;;;;5126195;27;27396;-50
2021/01/03 02:51:32;;;;;;;15.18;9.73;;;1.80;96.20;;;;;;5107297;27;27350;-50
2021/01/03 02:54:17;;;;;;;14.40;9.43;;;1.80;96.10;;;;;;5125148;27;27430;-52
2021/01/03 02:57:01;;;;;;;13.13;9.27;;;1.80;96.10;;;;;;5125447;27;27395;-51
2021/01/03 02:59:46;;;;;;;13.77;9.77;;;1.80;96.10;;;;;;5125744;27;27959;-52
2021/01/03 03:02:30;;;;;;;15.35;9.27;;;1.70;96.10;;;;;;5125652;27;27453;-50
2021/01/03 03:05:15;;;;;;;15.75;9.65;;;1.70;96.10;;;;;;5125678;27;27488;-52
2021/01/03 03:07:59;;;;;;;15.00;9.40;;;1.70;96.10;;;;;;5125570;27;27453;-50
2021/01/03 03:10:44;;;;;;;13.70;8.88;;;1.80;96.10;;;;;;5125821;27;27422;-54
2021/01/03 03:13:29;;;;;;;12.93;9.02;;;1.80;96.10;;;;;;5125417;27;27410;-50
2021/01/03 03:16:17;;;;;;;12.70;9.13;;;1.70;96.10;;;;;;5125454;27;27445;-51
2021/01/03 03:19:01;;;;;;;14.73;9.18;;;1.70;96.10;;;;;;5125451;27;27469;-51
2021/01/03 03:21:46;;;;;;;14.77;9.43;;;1.70;96.10;;;;;;5124989;27;27472;-52
2021/01/03 03:24:30;;;;;;;15.25;9.88;;;1.70;96.10;;;;;;5125056;27;27445;-48
2021/01/03 03:27:15;;;;;;;14.65;9.55;;;1.70;96.10;;;;;;5125634;27;27410;-54
2021/01/03 03:30:00;;;;;;;13.25;9.20;;;1.70;96.10;;;;;;5125242;27;27472;-53
2021/01/03 03:32:50;;;;;;;13.02;8.98;;;1.70;96.10;;;;;;5125413;27;27399;-51
2021/01/03 03:35:35;;;;;;;14.45;9.43;;;1.70;96.10;;;;;;5124183;27;27365;-50
2021/01/03 03:38:20;;;;;;;18.48;9.18;;;1.70;96.00;;;;;;5125220;27;27425;-54
2021/01/03 03:41:05;;;;;;;15.55;10.07;;;1.70;96.00;;;;;;5122154;27;27340;-54
2021/01/03 03:43:50;;;;;;;14.98;9.80;;;1.70;96.10;;;;;;5125049;27;27431;-53
2021/01/03 03:46:34;;;;;;;14.73;9.20;;;1.70;96.10;;;;;;5125075;27;27413;-54
2021/01/03 03:49:19;;;;;;;16.90;9.88;;;1.70;96.10;;;;;;5125330;27;27381;-52
2021/01/03 03:52:04;;;;;;;15.30;9.77;;;1.70;96.10;;;;;;5124565;27;27327;-51
2021/01/03 03:54:49;;;;;;;14.88;9.70;;;1.70;96.10;;;;;;5125183;27;27991;-49
2021/01/03 03:57:34;;;;;;;14.32;9.63;;;1.70;96.10;;;;;;5124867;27;27341;-51
2021/01/03 04:00:21;;;;;;;13.90;9.65;;;1.70;96.10;;;;;;5125212;27;27320;-51
2021/01/03 04:03:05;;;;;;;16.38;9.57;;;1.70;96.20;;;;;;5124870;27;27347;-51
2021/01/03 04:05:50;;;;;;;16.20;10.50;;;1.70;96.20;;;;;;5125069;27;28096;-50
2021/01/03 04:08:36;;;;;;;13.75;9.20;;;1.70;96.20;;;;;;5124701;27;27528;-50
2021/01/03 04:11:21;;;;;;;14.02;9.23;;;1.70;96.20;;;;;;5125052;27;27330;-51
2021/01/03 04:14:05;;;;;;;14.77;9.73;;;1.70;96.20;;;;;;5124957;27;27309;-51
2021/01/03 04:16:51;;;;;;;13.93;9.10;;;1.70;96.20;;;;;;5124469;27;27351;-52
2021/01/03 04:19:36;;;;;;;14.20;9.48;;;1.70;96.20;;;;;;5121335;27;27385;-51
2021/01/03 04:22:20;;;;;;;14.07;9.18;;;1.70;96.20;;;;;;5124904;27;27343;-50
2021/01/03 04:25:05;;;;;;;17.58;9.88;;;1.70;96.20;;;;;;5124890;27;27397;-49
2021/01/03 04:27:52;;;;;;;15.25;9.48;;;1.70;96.30;;;;;;5124803;27;27398;-50
2021/01/03 04:30:36;;;;;;;16.70;10.10;;;1.70;96.20;;;;;;5124747;27;27392;-50
2021/01/03 04:33:21;;;;;;;16.20;10.38;;;1.70;96.20;;;;;;5124806;27;27334;-51
2021/01/03 04:36:05;;;;;;;14.55;9.38;;;1.70;96.30;;;;;;5126862;27;27435;-50
2021/01/03 04:38:50;;;;;;;15.57;10.35;;;1.70;96.30;;;;;;5128055;27;27409;-51
2021/01/03 04:41:37;;;;;;;14.45;9.85;;;1.70;96.30;;;;;;5127207;27;27400;-51
2021/01/03 04:44:30;;;;;;;15.50;9.95;;;1.70;96.30;;;;;;5128230;27;27401;-50
2021/01/03 04:47:32;;;;;;;13.30;9.52;;;1.60;96.30;;;;;;5126715;27;27389;-54
2021/01/03 04:50:45;;;;;;;13.90;9.10;;;1.70;96.30;;;;;;5127284;27;27492;-51
2021/01/03 04:53:48;;;;;;;16.02;10.23;;;1.70;96.30;;;;;;5128023;27;27460;-51
2021/01/03 04:56:45;;;;;;;19.40;9.93;;;1.60;96.30;;;;;;5127709;27;27438;-52
2021/01/03 04:59:46;;;;;;;15.43;10.23;;;1.60;96.30;;;;;;5127689;27;27522;-51
2021/01/03 05:02:50;;;;;;;15.70;10.57;;;1.60;96.30;;;;;;5127585;27;27380;-51
2021/01/03 05:05:51;;;;;;;16.80;10.07;;;1.70;96.30;;;;;;5127864;27;27313;-51
2021/01/03 05:08:40;;;;;;;17.05;10.40;;;1.70;96.30;;;;;;5127867;27;27463;-47
2021/01/03 05:12:02;;;;;;;15.48;9.63;;;1.60;96.30;;;;;;5127806;27;27354;-50
2021/01/03 05:15:08;;;;;;;17.42;10.57;;;1.60;96.20;;;;;;5126419;27;27433;-50
2021/01/03 05:17:54;;;;;;;15.00;10.32;;;1.70;96.30;;;;;;5123746;27;27381;-52
2021/01/03 05:20:38;;;;;;;14.43;9.05;;;1.60;96.30;;;;;;5127378;27;27400;-54
2021/01/03 05:23:25;;;;;;;14.43;10.07;;;1.60;96.30;;;;;;5127579;27;27461;-50
2021/01/03 05:26:20;;;;;;;15.38;10.43;;;1.70;96.30;;;;;;5127215;27;27344;-51
2021/01/03 05:29:06;;;;;;;16.63;10.07;;;1.70;96.40;;;;;;5113784;27;27382;-53
2021/01/03 05:32:01;;;;;;;16.15;9.93;;;1.70;96.40;;;;;;5126795;27;27319;-52
2021/01/03 05:34:46;;;;;;;14.48;9.82;;;1.60;96.30;;;;;;5127409;27;27401;-51
2021/01/03 05:37:31;;;;;;;16.30;9.65;;;1.70;96.30;;;;;;5126034;27;27957;-51
2021/01/03 05:40:39;;;;;;;14.90;9.57;;;1.60;96.30;;;;;;5126458;27;27573;-48
2021/01/03 05:43:24;;;;;;;18.05;10.20;;;1.70;96.30;;;;;;5127045;27;27456;-55
2021/01/03 05:46:14;;;;;;;18.08;11.18;;;1.70;96.40;;;;;;5126456;27;27459;-51
2021/01/03 05:49:00;;;;;;;16.35;11.27;;;1.60;96.40;;;;;;5126824;27;27856;-47
2021/01/03 05:51:46;;;;;;;17.65;11.07;;;1.70;96.40;;;;;;5126376;27;27405;-51
2021/01/03 05:54:33;;;;;;;15.45;10.15;;;1.70;96.40;;;;;;5126368;27;27300;-54
2021/01/03 05:57:31;;;;;;;18.33;11.38;;;1.70;96.40;;;;;;5126576;27;27404;-52
2021/01/03 06:00:18;;;;;;;14.93;10.13;;;1.70;96.40;;;;;;5126212;27;27418;-53
2021/01/03 06:03:31;;;;;;;15.80;10.73;;;1.70;96.40;;;;;;5125892;27;27418;-53
2021/01/03 06:06:19;;;;;;;14.82;10.05;;;1.70;96.40;;;;;;5125874;27;27611;-47
2021/01/03 06:09:04;;;;;;;19.83;11.32;;;1.60;96.30;;;;;;5125892;27;27412;-51
2021/01/03 06:12:12;;;;;;;18.45;12.25;;;1.60;96.40;;;;;;5111337;27;27399;-50
2021/01/03 06:15:00;;;;;;;16.15;10.32;;;1.70;96.80;;;;;;5126723;27;27397;-52
2021/01/03 06:17:44;;;;;;;16.23;10.35;;;1.70;96.40;;;;;;5125698;27;27437;-47
2021/01/03 06:20:30;;;;;;;17.42;11.05;;;1.60;96.40;;;;;;5126657;27;27403;-50
2021/01/03 06:23:33;;;;;;;17.48;10.95;;;1.70;96.50;;;;;;5126594;27;27425;-51
2021/01/03 06:26:18;;;;;;;18.13;11.10;;;1.60;96.40;;;;;;5126321;27;27351;-51
2021/01/03 06:29:22;;;;;;;17.73;11.40;;;1.70;96.40;;;;;;5126585;27;27460;-52
2021/01/03 06:32:26;;;;;;;16.55;10.70;;;1.70;96.40;;;;;;5125547;27;27386;-50
2021/01/03 06:35:35;;;;;;;17.52;11.10;;;1.70;96.40;;;;;;5125295;27;27621;-52
2021/01/03 06:38:25;;;;;;;18.52;11.43;;;1.70;96.40;;;;;;5126039;27;27414;-53
2021/01/03 06:41:15;;;;;;;17.35;11.23;;;1.60;96.40;;;;;;5126346;27;27335;-53
2021/01/03 06:44:21;;;;;;;17.13;10.82;;;1.60;96.40;;;;;;5126005;27;27462;-47
2021/01/03 06:47:10;;;;;;;16.63;11.18;;;1.60;96.40;;;;;;5125930;27;27905;-49
2021/01/03 06:50:06;;;;;;;17.08;11.77;;;1.60;96.50;;;;;;5126174;27;27405;-53
2021/01/03 06:53:27;;;;;;;15.05;10.23;;;1.60;96.50;;;;;;5125494;27;26943;-54
2021/01/03 06:56:29;;;;;;;16.45;10.25;;;1.70;96.50;;;;;;5124187;27;27678;-54
2021/01/03 06:59:34;;;;;;;18.10;11.10;;;1.70;96.50;;;;;;5125815;27;27422;-53
2021/01/03 07:02:18;;;;;;;17.75;11.35;;;1.70;96.50;;;;;;5125477;27;27430;-55
2021/01/03 07:05:05;;;;;;;17.45;11.45;;;1.70;96.50;;;;;;5124958;27;27453;-55
2021/01/03 07:08:07;;;;;;;19.55;11.30;;;1.70;96.50;;;;;;5125642;27;27465;-54
2021/01/03 07:10:52;;;;;;;17.23;11.90;;;1.60;96.50;;;;;;5124846;27;28029;-55
2021/01/03 07:13:37;;;;;;;18.75;11.68;;;1.70;96.50;;;;;;5125533;27;27500;-55
2021/01/03 07:16:45;;;;;;;15.90;10.15;;;1.60;96.50;;;;;;5125818;27;27351;-54
2021/01/03 07:19:29;;;;;;;19.23;11.60;;;1.70;96.50;;;;;;5125748;27;27502;-54
2021/01/03 07:22:34;;;;;;;18.88;11.73;;;1.60;96.50;;;;;;5125701;27;27414;-54
2021/01/03 07:25:29;;;;;;;18.55;11.30;;;1.70;96.50;;;;;;5125362;27;27426;-52
2021/01/03 07:28:31;;;;;;;17.45;10.43;;;1.60;96.50;;;;;;5125182;27;27480;-55
2021/01/03 07:31:22;;;;;;;15.88;10.65;;;1.60;96.50;;;;;;5125585;27;26850;-55
2021/01/03 07:34:20;;;;;;;18.60;11.77;;;1.60;96.50;;;;;;5125560;27;27843;-54
2021/01/03 07:37:18;;;;;;;15.30;11.02;;;1.60;96.50;;;;;;5124520;27;27347;-52
2021/01/03 07:40:11;;;;;;;16.48;11.55;;;1.70;96.60;;;;;;5125189;27;27476;-56
2021/01/03 07:43:01;;;;;;;18.38;12.18;;;1.70;96.50;;;;;;5125148;27;27393;-55
2021/01/03 07:45:46;;;;;;;19.10;12.10;;;1.70;96.50;;;;;;5125297;27;27837;-55
2021/01/03 07:48:31;;;;;;;18.83;11.65;;;1.70;96.50;;;;;;5125067;27;27474;-55
2021/01/03 07:51:16;;;;;;;17.95;11.68;;;1.70;96.50;;;;;;5125362;27;27430;-55
2021/01/03 07:54:00;;;;;;;16.17;11.02;;;1.70;96.50;;;;;;5124312;27;27500;-54
2021/01/03 07:56:45;;;;;;;18.52;11.35;;;1.70;96.50;;;;;;5109014;27;27849;-55
2021/01/03 07:59:30;;;;;;;20.95;13.25;;;1.70;96.50;;;;;;5124884;27;27500;-56
2021/01/03 08:02:16;;;;;;;17.33;11.55;;;1.70;96.40;;;;;;5124922;27;27390;-54
2021/01/03 08:05:00;;;;;;;16.83;11.52;;;1.70;96.40;;;;;;5125149;27;27469;-55
2021/01/03 08:07:45;;;;;;;17.88;12.13;;;1.70;96.40;;;;;;5124056;27;27890;-55
2021/01/03 08:10:30;;;;;;;18.63;12.05;;;1.80;96.50;;;;;;5128403;27;27543;-56
2021/01/03 08:13:28;;;;;;;16.88;11.50;;;1.80;96.40;;;;;;5128457;27;27378;-55
2021/01/03 08:16:20;;;;;;;15.13;10.73;;;1.80;96.40;;;;;;5127847;27;27367;-57
2021/01/03 08:19:08;;;;;;;18.38;12.07;;;1.80;96.40;;;;;;5125033;27;27944;-57
2021/01/03 08:21:57;;;;;;;17.15;11.57;;;1.80;96.40;;;;;;5127533;27;27429;-57
2021/01/03 08:24:42;;;;;;;15.52;11.13;;;1.80;96.30;;;;;;5128086;27;27594;-57
2021/01/03 08:27:51;;;;;;;16.55;11.65;;;1.80;96.20;;;;;;5113068;27;27375;-56
2021/01/03 08:30:36;;;;;;;15.95;10.48;;;1.80;96.30;;;;;;5127454;27;27456;-57
2021/01/03 08:33:36;;;;;;;17.52;11.43;;;1.90;96.30;;;;;;5128341;27;27483;-57
2021/01/03 08:36:33;;;;;;;15.45;10.30;;;1.90;96.20;;;;;;5127426;27;27335;-57
2021/01/03 08:39:17;;;;;;;18.25;11.52;;;1.80;96.30;;;;;;5128310;27;27320;-57
2021/01/03 08:42:04;;;;;;;18.63;11.68;;;1.90;96.30;;;;;;5127909;27;27918;-56
2021/01/03 08:44:51;;;;;;;17.13;11.55;;;1.90;96.20;;;;;;5127873;27;27517;-57
2021/01/03 08:47:38;;;;;;;18.35;11.73;;;1.90;96.20;;;;;;5127490;27;27400;-57
2021/01/03 08:50:25;;;;;;;16.92;11.70;;;1.90;96.20;;;;;;5126770;27;27583;-56
2021/01/03 08:53:21;;;;;;;17.75;11.27;;;1.90;96.30;;;;;;5127055;27;27355;-56
2021/01/03 08:56:15;;;;;;;19.48;12.30;;;1.90;96.20;;;;;;5127907;27;27312;-57
2021/01/03 08:58:59;;;;;;;17.77;12.25;;;1.90;96.20;;;;;;5127301;27;27311;-57
2021/01/03 09:01:44;;;;;;;18.98;11.35;;;2.00;96.20;;;;;;5127907;27;27321;-56
2021/01/03 09:04:29;;;;;;;16.63;11.30;;;2.00;96.20;;;;;;5127873;27;27374;-55
2021/01/03 09:07:13;;;;;;;17.98;10.88;;;2.00;96.50;;;;;;5112543;27;27538;-57
2021/01/03 09:10:01;;;;;;;15.95;11.43;;;2.00;96.20;;;;;;5109066;27;27485;-57
2021/01/03 09:12:45;;;;;;;16.40;11.40;;;2.00;96.20;;;;;;5127726;27;27370;-55
2021/01/03 09:15:30;;;;;;;16.20;11.07;;;2.00;96.10;;;;;;5112145;27;27878;-56
2021/01/03 09:18:34;;;;;;;14.82;10.23;;;2.10;96.10;;;;;;5111485;27;27411;-56
2021/01/03 09:21:18;;;;;;;18.30;11.52;;;2.10;96.00;;;;;;5126833;27;27323;-57
2021/01/03 09:24:04;;;;;;;16.60;11.60;;;2.10;96.00;;;;;;5124267;27;27448;-56
2021/01/03 09:26:49;;;;;;;15.23;9.75;;;2.10;96.00;;;;;;5127423;27;27328;-57
2021/01/03 09:29:42;;;;;;;15.65;10.80;;;2.20;96.00;;;;;;5123054;27;27441;-57
2021/01/03 09:32:29;;;;;;;15.80;10.82;;;2.20;95.90;;;;;;5127181;27;27472;-58
2021/01/03 09:35:29;;;;;;;14.93;10.02;;;2.20;95.90;;;;;;5125871;27;27374;-57
2021/01/03 09:38:35;;;;;;;15.80;10.15;;;2.20;95.80;;;;;;5123751;27;27839;-57
2021/01/03 09:41:38;;;;;;;15.40;10.98;;;2.20;95.70;;;;;;5126940;27;27426;-58
2021/01/03 09:44:33;;;;;;;16.73;11.45;;;2.20;95.70;;;;;;5127309;27;27393;-57
2021/01/03 09:47:18;;;;;;;16.48;10.88;;;2.20;95.80;;;;;;5125879;27;27399;-58
2021/01/03 09:50:13;;;;;;;15.77;10.73;;;2.30;95.80;;;;;;5126812;27;27389;-50
2021/01/03 09:53:22;;;;;;;18.60;11.63;;;2.20;95.70;;;;;;5127339;27;27582;-57
2021/01/03 09:56:12;;;;;;;16.08;10.63;;;2.30;95.80;;;;;;5126760;27;27438;-58
2021/01/03 09:58:56;;;;;;;16.20;10.90;;;2.30;95.80;;;;;;5127097;27;27327;-57
2021/01/03 10:01:41;;;;;;;16.85;11.07;;;2.30;95.80;;;;;;5111464;27;27363;-58
2021/01/03 10:04:29;;;;;;;16.60;10.52;;;2.30;95.80;;;;;;5126962;27;27540;-58
2021/01/03 10:07:18;;;;;;;16.40;10.85;;;2.30;95.80;;;;;;5126649;27;27462;-56
2021/01/03 10:10:06;;;;;;;16.05;10.80;;;2.40;95.70;;;;;;5126866;27;27384;-58
2021/01/03 10:12:51;;;;;;;14.23;10.90;;;2.40;95.70;;;;;;5126778;27;27330;-57
2021/01/03 10:15:35;;;;;;;16.55;10.80;;;2.40;95.70;;;;;;5123426;27;27396;-57
2021/01/03 10:18:36;;;;;;;16.20;10.52;;;2.40;95.70;;;;;;5126134;27;27346;-57
2021/01/03 10:21:26;;;;;;;16.00;11.52;;;2.40;95.60;;;;;;5125836;27;27434;-57
2021/01/03 10:24:17;;;;;;;15.40;9.80;;;2.40;95.60;;;;;;5125814;27;27386;-56
2021/01/03 10:27:04;;;;;;;14.98;10.70;;;2.40;95.50;;;;;;5126476;27;27427;-57
2021/01/03 10:29:49;;;;;;;17.50;11.57;;;2.50;95.60;;;;;;5126566;27;27347;-56
2021/01/03 10:32:37;;;;;;;15.68;10.32;;;2.50;95.60;;;;;;5126198;27;27327;-53
2021/01/03 10:35:22;;;;;;;16.90;10.43;;;2.50;95.60;;;;;;5125793;27;27596;-56
2021/01/03 10:38:07;;;;;;;16.33;11.32;;;2.50;95.60;;;;;;5125841;27;27516;-58
2021/01/03 10:40:51;;;;;;;15.75;10.80;;;2.50;95.60;;;;;;5126392;27;27335;-57
2021/01/03 10:43:36;;;;;;;14.75;10.65;;;2.50;95.60;;;;;;5122703;27;27389;-57
2021/01/03 10:46:20;;;;;;;17.33;11.23;;;2.50;95.60;;;;;;5126169;27;27876;-57
2021/01/03 10:49:05;;;;;;;17.00;11.60;;;2.50;95.60;;;;;;5125918;27;27484;-57
2021/01/03 10:51:50;;;;;;;15.50;11.38;;;2.60;96.00;;;;;;5126166;27;27336;-57
2021/01/03 10:54:35;;;;;;;16.98;10.82;;;2.60;95.60;;;;;;5125904;27;27403;-58
2021/01/03 10:57:20;;;;;;;16.42;10.48;;;2.70;95.50;;;;;;5125498;27;27343;-54
2021/01/03 11:00:08;;;;;;;16.00;11.15;;;2.70;95.40;;;;;;5125749;27;27332;-57
2021/01/03 11:02:53;;;;;;;19.77;11.55;;;2.80;95.30;;;;;;5122025;27;27315;-57
2021/01/03 11:05:37;;;;;;;19.38;11.50;;;2.90;95.40;;;;;;5125822;27;27369;-57
2021/01/03 11:08:22;;;;;;;18.35;11.38;;;3.00;95.30;;;;;;5125643;27;27320;-48
2021/01/03 11:11:06;;;;;;;16.77;11.38;;;3.10;95.10;;;;;;5125456;27;27413;-57
2021/01/03 11:13:51;;;;;;;16.75;11.55;;;3.10;94.90;;;;;;5121833;27;27372;-57
2021/01/03 11:16:38;;;;;;;19.05;11.75;;;3.30;94.80;;;;;;5125840;27;27386;-50
2021/01/03 11:19:22;;;;;;;18.10;11.88;;;3.30;94.70;;;;;;5125736;27;27975;-58
2021/01/03 11:22:09;;;;;;;19.25;13.18;;;3.40;94.50;;;;;;5125667;27;27426;-57
2021/01/03 11:24:54;;;;;;;17.77;11.73;;;3.50;94.40;;;;;;5125461;27;27465;-58
2021/01/03 11:27:38;;;;;;;16.95;11.70;;;3.60;94.10;;;;;;5125402;27;27543;-60
2021/01/03 11:30:23;;;;;;;18.08;11.38;;;3.70;94.00;;;;;;5125292;27;27455;-59
2021/01/03 11:33:08;;;;;;;15.88;10.57;;;3.80;93.80;;;;;;5125530;27;27389;-60
2021/01/03 11:35:54;;;;;;;15.98;11.23;;;3.90;93.80;;;;;;5124684;27;27579;-60
2021/01/03 11:38:39;;;;;;;15.68;10.52;;;3.90;93.50;;;;;;5122176;27;27465;-60
2021/01/03 11:41:23;;;;;;;15.93;11.65;;;4.00;93.40;;;;;;5124431;27;28069;-53
2021/01/03 11:44:08;;;;;;;17.23;11.35;;;4.10;93.20;;;;;;5124887;27;27409;-60
2021/01/03 11:47:06;;;;;;;16.65;11.50;;;4.20;93.10;;;;;;5125220;27;27385;-60
2021/01/03 11:49:51;;;;;;;14.00;10.00;;;4.30;92.90;;;;;;5125092;27;27484;-59
2021/01/03 11:52:36;;;;;;;17.50;11.85;;;4.40;92.70;;;;;;5125058;27;27471;-60
2021/01/03 11:55:21;;;;;;;17.40;11.68;;;4.50;92.50;;;;;;5125231;27;27460;-56
2021/01/03 11:58:05;;;;;;;14.48;10.90;;;4.50;92.40;;;;;;5125034;27;27430;-56
2021/01/03 12:00:51;;;;;;;17.60;11.88;;;4.60;92.20;;;;;;5125218;27;27465;-55
2021/01/03 12:03:36;;;;;;;14.00;10.30;;;4.70;92.10;;;;;;5125280;27;27964;-56
2021/01/03 12:06:22;;;;;;;16.67;10.48;;;4.70;92.00;;;;;;5124250;27;27434;-54
2021/01/03 12:09:06;;;;;;;14.98;10.55;;;4.80;91.90;;;;;;5125227;27;27436;-59
2021/01/03 12:11:52;;;;;;;15.30;11.15;;;4.90;91.70;;;;;;5124711;27;27455;-49
2021/01/03 12:14:37;;;;;;;14.73;10.77;;;4.90;91.60;;;;;;5124724;27;27419;-47
2021/01/03 12:17:22;;;;;;;15.43;11.35;;;5.10;91.60;;;;;;5124501;27;27456;-50
2021/01/03 12:20:08;;;;;;;15.35;10.77;;;5.10;91.30;;;;;;5124712;27;27423;-49
2021/01/03 12:22:52;;;;;;;16.05;10.13;;;5.20;91.20;;;;;;5124868;27;27472;-51
2021/01/03 12:25:37;;;;;;;16.30;10.95;;;5.20;91.10;;;;;;5124632;27;27516;-54
2021/01/03 12:28:21;;;;;;;14.45;10.52;;;5.30;91.00;;;;;;5124451;27;27508;-53
2021/01/03 12:31:05;;;;;;;15.43;10.43;;;5.30;90.90;;;;;;5124167;27;27394;-50
2021/01/03 12:33:50;;;;;;;13.68;10.77;;;5.40;90.90;;;;;;5123692;27;27439;-52
2021/01/03 12:36:34;;;;;;;15.02;10.52;;;5.40;90.90;;;;;;5123247;27;27413;-52
2021/01/03 12:39:19;;;;;;;14.68;10.95;;;5.40;90.90;;;;;;5124026;27;27513;-50
2021/01/03 12:42:04;;;;;;;14.90;10.77;;;5.40;90.90;;;;;;5121033;27;27410;-53
2021/01/03 12:44:49;;;;;;;16.00;11.10;;;5.50;90.80;;;;;;5121089;27;27399;-47
2021/01/03 12:47:34;;;;;;;17.85;11.95;;;5.40;90.80;;;;;;5121241;27;27414;-53
2021/01/03 12:50:18;;;;;;;19.20;12.18;;;5.40;90.80;;;;;;5124382;27;27384;-51
2021/01/03 12:53:03;;;;;;;17.25;12.48;;;5.40;90.70;;;;;;5124603;27;27339;-55
2021/01/03 12:55:48;;;;;;;15.77;11.70;;;5.50;90.80;;;;;;5125411;27;27379;-52
2021/01/03 12:58:33;;;;;;;16.70;11.65;;;5.40;90.90;;;;;;5127179;27;28058;-55
2021/01/03 13:01:21;;;;;;;18.75;12.50;;;5.40;90.90;;;;;;5127722;27;27537;-55
2021/01/03 13:04:06;;;;;;;18.15;11.88;;;5.50;91.00;;;;;;5127734;27;27508;-52
2021/01/03 13:06:51;;;;;;;15.13;11.07;;;5.40;90.90;;;;;;5127903;27;27398;-51
2021/01/03 13:09:35;;;;;;;15.77;11.35;;;5.50;91.00;;;;;;5127825;27;27500;-47
2021/01/03 13:12:20;;;;;;;18.38;12.75;;;5.50;91.00;;;;;;5127512;27;27477;-53
2021/01/03 13:15:06;;;;;;;18.73;12.10;;;5.50;91.00;;;;;;5127823;27;27444;-55
2021/01/03 13:17:51;;;;;;;18.33;12.23;;;5.50;91.00;;;;;;5127243;27;27487;-53
2021/01/03 13:20:35;;;;;;;17.30;11.77;;;5.40;91.00;;;;;;5123320;27;27463;-53
2021/01/03 13:23:20;;;;;;;18.13;12.45;;;5.50;91.00;;;;;;5127612;27;27448;-51
2021/01/03 13:26:04;;;;;;;16.63;12.00;;;5.40;91.00;;;;;;5127095;27;27477;-51
2021/01/03 13:28:49;;;;;;;17.25;11.57;;;5.30;91.00;;;;;;5127583;27;27419;-46
2021/01/03 13:31:34;;;;;;;17.60;12.70;;;5.30;91.10;;;;;;5127114;27;27944;-54
2021/01/03 13:34:18;;;;;;;19.10;12.45;;;5.30;91.10;;;;;;5127397;27;27426;-52
2021/01/03 13:37:03;;;;;;;18.63;11.95;;;5.20;91.30;;;;;;5126628;27;27374;-54
2021/01/03 13:39:47;;;;;;;17.98;12.93;;;5.20;91.30;;;;;;5127130;27;27373;-52
2021/01/03 13:42:32;;;;;;;20.00;12.88;;;5.20;91.40;;;;;;5127378;27;28088;-53
2021/01/03 13:45:16;;;;;;;18.35;11.43;;;5.10;91.60;;;;;;5127222;27;27421;-53
2021/01/03 13:48:01;;;;;;;17.67;12.45;;;5.10;91.70;;;;;;5123954;27;27324;-54
2021/01/03 13:50:46;;;;;;;16.63;11.68;;;5.00;91.70;;;;;;5126908;27;27326;-54
2021/01/03 13:53:31;;;;;;;20.05;12.48;;;5.00;91.70;;;;;;5126566;27;27350;-50
2021/01/03 13:56:16;;;;;;;20.27;12.00;;;5.00;92.10;;;;;;5126909;27;27509;-56
2021/01/03 13:59:00;;;;;;;19.77;13.45;;;5.00;92.10;;;;;;5126895;27;26902;-56
2021/01/03 14:01:47;;;;;;;18.67;12.80;;;5.00;91.30;;;;;;5127100;27;27429;-57
2021/01/03 14:04:32;;;;;;;23.52;13.45;;;5.00;91.00;;;;;;5126920;27;27891;-49
2021/01/03 14:07:17;;;;;;;19.75;13.00;;;5.00;91.30;;;;;;5126280;27;27388;-55
2021/01/03 14:10:03;;;;;;;16.50;11.77;;;5.00;91.20;;;;;;5127009;27;27401;-49
2021/01/03 14:12:48;;;;;;;17.02;12.18;;;5.00;91.40;;;;;;5126601;27;27363;-55
2021/01/03 14:15:32;;;;;;;18.08;12.60;;;5.00;91.40;;;;;;5126805;27;27404;-57
2021/01/03 14:18:17;;;;;;;18.92;12.95;;;5.00;91.50;;;;;;5126182;27;27391;-55
2021/01/03 14:21:01;;;;;;;15.32;11.73;;;5.00;91.60;;;;;;5126297;27;27058;-57
2021/01/03 14:23:47;;;;;;;18.00;11.85;;;5.00;91.50;;;;;;5126673;27;27314;-57
2021/01/03 14:26:42;;;;;;;17.20;11.75;;;5.00;91.50;;;;;;5126594;27;27388;-57